Time;durP1;ratioP1;P1;durP2;ratioP2;P2;SDS_P1;SDS_P2;PMS_P1;PMS_P2;Temp;Humidity;BMP_temperature;BMP_pressure;BME280_temperature;BME280_humidity;BME280_pressure;Samples;Min_cycle;Max_cycle;Signal;HPM_P1;HPM_P2
2023/10/16 00:01:05;;;;;;;0.00;0.00;;;;;;;11.01;55.51;100236.66;4473755;32;33368;-80
2023/10/16 00:03:33;;;;;;;0.28;0.15;;;;;;;11.01;55.31;100241.06;4476897;32;33468;-79
2023/10/16 00:06:05;;;;;;;0.00;0.00;;;;;;;11.20;54.76;100242.09;4480716;32;34764;-78
2023/10/16 00:08:36;;;;;;;0.43;0.20;;;;;;;10.94;55.53;100255.44;4472753;32;34620;-79
2023/10/16 00:11:04;;;;;;;0.25;0.25;;;;;;;11.13;54.68;100255.59;4463151;32;32966;-78
2023/10/16 00:13:35;;;;;;;0.25;0.22;;;;;;;11.05;55.12;100262.94;4475501;32;33582;-79
2023/10/16 00:16:03;;;;;;;0.10;0.10;;;;;;;10.89;55.31;100268.81;4474595;32;33917;-78
2023/10/16 00:18:33;;;;;;;0.05;0.05;;;;;;;10.83;55.55;100271.69;4463937;32;32712;-78
2023/10/16 00:21:05;;;;;;;0.00;0.00;;;;;;;11.06;54.83;100272.59;4463704;32;33219;-78
2023/10/16 00:23:39;;;;;;;;;;;;;;;10.96;55.53;100262.38;4464487;32;35275;-79
2023/10/16 00:26:21;;;;;;;0.00;0.00;;;;;;;10.92;55.78;100266.06;4462776;32;34252;-78
2023/10/16 00:29:02;;;;;;;0.10;0.10;;;;;;;11.21;54.64;100277.31;4447889;32;33013;-78
2023/10/16 00:31:32;;;;;;;1.60;0.88;;;;;;;11.01;55.10;100270.13;4467098;32;32878;-78
2023/10/16 00:34:02;;;;;;;0.00;0.00;;;;;;;11.19;54.78;100268.56;4459734;32;32843;-77
2023/10/16 00:36:30;;;;;;;0.05;0.05;;;;;;;11.10;55.30;100272.41;4476519;32;33634;-78
2023/10/16 00:39:12;;;;;;;0.00;0.00;;;;;;;11.09;55.04;100275.13;4474576;32;33834;-78
2023/10/16 00:41:42;;;;;;;;;;;;;;;11.22;55.01;100260.53;4474591;32;34838;-80
2023/10/16 00:44:10;;;;;;;0.13;0.13;;;;;;;11.28;54.81;100265.56;4449721;32;33895;-79
2023/10/16 00:46:38;;;;;;;0.25;0.20;;;;;;;11.16;55.11;100266.91;4477055;32;33960;-79
2023/10/16 00:49:07;;;;;;;0.00;0.00;;;;;;;11.11;55.57;100266.25;4475295;32;33648;-79
2023/10/16 00:51:38;;;;;;;0.20;0.20;;;;;;;11.10;55.71;100263.63;4461746;32;32868;-79
2023/10/16 00:54:16;;;;;;;0.47;0.47;;;;;;;11.21;55.29;100261.47;4462768;32;32762;-79
2023/10/16 00:56:51;;;;;;;0.00;0.00;;;;;;;11.17;54.89;100273.91;4461745;32;33669;-79
2023/10/16 00:59:23;;;;;;;0.17;0.10;;;;;;;11.16;55.13;100271.34;4460651;32;32701;-80
2023/10/16 01:04:40;;;;;;;0.10;0.10;;;;;;;10.62;56.64;100269.84;4476703;32;32970;-80
2023/10/16 01:07:09;;;;;;;0.45;0.43;;;;;;;10.83;55.97;100263.78;4474756;32;33819;-80
2023/10/16 01:09:39;;;;;;;0.00;0.00;;;;;;;10.52;56.64;100267.53;4474272;32;33219;-80
2023/10/16 01:12:07;;;;;;;0.00;0.00;;;;;;;10.79;55.94;100262.16;4475495;32;33685;-79
2023/10/16 01:14:36;;;;;;;1.25;0.35;;;;;;;10.60;56.35;100276.97;4476288;32;33907;-80
2023/10/16 01:17:08;;;;;;;0.20;0.13;;;;;;;10.51;56.48;100276.38;4474715;32;34428;-78
2023/10/16 01:19:37;;;;;;;0.32;0.32;;;;;;;10.86;55.11;100279.50;4461100;32;34417;-78
2023/10/16 01:22:05;;;;;;;0.43;0.28;;;;;;;10.67;55.65;100273.16;4475669;32;32229;-78
2023/10/16 01:24:33;;;;;;;0.00;0.00;;;;;;;10.52;56.04;100278.09;4475320;32;33850;-79
2023/10/16 01:27:06;;;;;;;0.00;0.00;;;;;;;10.87;54.98;100275.97;4452110;32;33916;-78
2023/10/16 01:29:34;;;;;;;0.15;0.15;;;;;;;10.72;55.20;100281.78;4461827;32;34502;-79
2023/10/16 01:32:04;;;;;;;0.52;0.30;;;;;;;10.71;55.12;100291.50;4462515;32;32301;-78
2023/10/16 01:34:32;;;;;;;0.75;0.20;;;;;;;10.65;55.34;100290.84;4474157;32;34562;-78
2023/10/16 01:37:08;;;;;;;0.20;0.10;;;;;;;10.75;54.60;100297.53;4473284;32;32865;-79
2023/10/16 01:39:49;;;;;;;0.10;0.10;;;;;;;10.98;53.16;100297.53;4462457;32;34275;-79
2023/10/16 01:42:18;;;;;;;0.00;0.00;;;;;;;10.71;53.91;100298.56;4463817;32;32569;-79
2023/10/16 01:44:51;;;;;;;0.00;0.00;;;;;;;10.65;54.36;100302.28;4476388;32;34380;-80
2023/10/16 01:47:19;;;;;;;0.00;0.00;;;;;;;10.47;55.14;100303.78;4461994;32;33912;-80
2023/10/16 01:49:48;;;;;;;0.00;0.00;;;;;;;10.70;54.70;100304.75;4476902;32;33678;-79
2023/10/16 01:52:16;;;;;;;0.00;0.00;;;;;;;10.75;54.06;100298.37;4452824;32;32309;-80
2023/10/16 01:54:45;;;;;;;0.00;0.00;;;;;;;10.38;55.16;100295.34;4474431;32;32724;-79
2023/10/16 01:57:14;;;;;;;0.00;0.00;;;;;;;10.63;54.17;100305.88;4465135;32;32808;-78
2023/10/16 01:59:44;;;;;;;0.00;0.00;;;;;;;10.44;54.13;100303.91;4474851;32;34240;-79
2023/10/16 02:02:13;;;;;;;0.00;0.00;;;;;;;10.64;53.36;100297.94;4463336;32;32363;-79
2023/10/16 02:04:42;;;;;;;1.12;0.80;;;;;;;10.54;53.76;100312.38;4462724;32;33832;-79
2023/10/16 02:07:11;;;;;;;0.00;0.00;;;;;;;10.11;55.13;100318.22;4459639;32;34487;-80
2023/10/16 02:09:40;;;;;;;0.00;0.00;;;;;;;9.84;55.79;100326.13;4473177;32;34717;-79
2023/10/16 02:12:16;;;;;;;0.90;0.88;;;;;;;9.78;56.14;100338.63;4477071;32;33213;-79
2023/10/16 02:14:45;;;;;;;0.00;0.00;;;;;;;10.50;54.01;100327.47;4463357;32;34685;-79
2023/10/16 02:17:18;;;;;;;0.00;0.00;;;;;;;10.09;54.81;100335.87;4463905;32;32707;-79
2023/10/16 02:19:48;;;;;;;0.00;0.00;;;;;;;10.38;54.19;100330.50;4461533;32;33892;-79
2023/10/16 02:22:16;;;;;;;0.00;0.00;;;;;;;10.21;54.69;100340.75;4476680;32;33448;-79
2023/10/16 02:24:48;;;;;;;0.00;0.00;;;;;;;9.98;55.81;100346.78;4474514;32;33402;-79
2023/10/16 02:27:18;;;;;;;0.00;0.00;;;;;;;10.02;55.88;100356.34;4448096;32;34560;-79
2023/10/16 02:29:49;;;;;;;0.00;0.00;;;;;;;10.15;55.60;100364.69;4461592;32;33667;-79
2023/10/16 02:32:17;;;;;;;0.00;0.00;;;;;;;10.16;55.22;100355.84;4463042;32;33513;-79
2023/10/16 02:34:45;;;;;;;0.00;0.00;;;;;;;10.38;54.38;100346.34;4460104;32;34241;-79
2023/10/16 02:37:16;;;;;;;0.17;0.17;;;;;;;10.38;54.27;100351.63;4475837;32;33677;-79
2023/10/16 02:39:50;;;;;;;0.00;0.00;;;;;;;10.35;53.90;100348.22;4462240;32;33192;-80
2023/10/16 02:42:19;;;;;;;0.00;0.00;;;;;;;10.27;54.36;100350.28;4462881;32;33227;-79
2023/10/16 02:44:49;;;;;;;0.00;0.00;;;;;;;9.66;56.55;100355.72;4475151;32;33506;-79
2023/10/16 02:47:26;;;;;;;0.00;0.00;;;;;;;9.59;56.96;100346.25;4462924;32;34788;-80
2023/10/16 02:49:56;;;;;;;0.00;0.00;;;;;;;10.05;55.77;100336.88;4460697;32;34573;-80
2023/10/16 02:52:25;;;;;;;0.00;0.00;;;;;;;9.91;55.93;100340.84;4460894;32;33411;-78
2023/10/16 02:54:56;;;;;;;0.10;0.10;;;;;;;10.20;54.82;100336.38;4474748;32;33768;-78
2023/10/16 02:57:27;;;;;;;0.00;0.00;;;;;;;10.45;53.76;100332.03;4463057;32;33733;-78
2023/10/16 02:59:56;;;;;;;0.00;0.00;;;;;;;10.14;54.71;100337.44;4457056;32;33997;-78
2023/10/16 03:02:27;;;;;;;0.30;0.30;;;;;;;10.12;54.86;100339.28;4475313;32;33703;-78
2023/10/16 03:05:10;;;;;;;0.05;0.05;;;;;;;9.85;55.80;100351.59;4476729;32;34335;-78
2023/10/16 03:07:44;;;;;;;0.00;0.00;;;;;;;9.99;55.69;100357.28;4476405;32;34368;-79
2023/10/16 03:10:13;;;;;;;2.35;0.73;;;;;;;10.27;54.11;100356.41;4464102;32;33137;-78
2023/10/16 03:12:42;;;;;;;2.45;0.98;;;;;;;10.35;54.17;100364.06;4473410;32;33438;-78
2023/10/16 03:15:20;;;;;;;0.00;0.00;;;;;;;10.14;54.95;100365.63;4450826;32;32876;-78
2023/10/16 03:17:50;;;;;;;0.00;0.00;;;;;;;9.97;55.42;100372.31;4463320;32;32879;-78
2023/10/16 03:20:23;;;;;;;0.00;0.00;;;;;;;10.03;54.96;100373.88;4476158;32;33524;-78
2023/10/16 03:22:50;;;;;;;;;;;;;;;9.93;55.53;100386.50;4464179;32;34075;-78
2023/10/16 03:25:25;;;;;;;0.00;0.00;;;;;;;9.90;55.87;100380.47;4474285;32;34035;-78
2023/10/16 03:27:55;;;;;;;0.17;0.17;;;;;;;9.95;55.63;100371.50;4462911;32;34707;-78
2023/10/16 03:30:30;;;;;;;0.08;0.08;;;;;;;9.88;55.80;100377.03;4476416;32;33697;-78
2023/10/16 03:32:59;;;;;;;0.00;0.00;;;;;;;10.06;55.34;100375.56;4476195;32;33486;-78
2023/10/16 03:35:29;;;;;;;0.00;0.00;;;;;;;10.09;55.16;100373.69;4475387;32;32856;-78
2023/10/16 03:37:58;;;;;;;0.00;0.00;;;;;;;10.07;55.17;100393.13;4476784;32;33942;-78
2023/10/16 03:40:27;;;;;;;0.00;0.00;;;;;;;9.88;55.54;100399.00;4462978;32;33103;-79
2023/10/16 03:42:55;;;;;;;0.00;0.00;;;;;;;9.87;55.67;100407.78;4474381;32;34146;-78
2023/10/16 03:45:23;;;;;;;0.00;0.00;;;;;;;9.99;55.19;100406.56;4463079;32;34375;-78
2023/10/16 03:47:52;;;;;;;0.00;0.00;;;;;;;9.89;55.46;100405.12;4463687;32;34191;-79
2023/10/16 03:50:24;;;;;;;0.00;0.00;;;;;;;9.60;56.60;100413.94;4466118;32;33825;-78
2023/10/16 03:52:55;;;;;;;0.00;0.00;;;;;;;9.63;56.33;100411.19;4465153;32;33415;-79
2023/10/16 03:55:24;;;;;;;0.25;0.17;;;;;;;9.82;55.78;100408.84;4462301;32;33098;-78
2023/10/16 03:57:53;;;;;;;0.10;0.10;;;;;;;9.79;55.51;100401.06;4476658;32;34693;-78
2023/10/16 04:00:26;;;;;;;0.00;0.00;;;;;;;9.78;55.60;100394.91;4449152;32;33242;-78
2023/10/16 04:02:59;;;;;;;0.00;0.00;;;;;;;9.80;55.76;100390.44;4472901;32;34052;-78
2023/10/16 04:05:32;;;;;;;0.13;0.13;;;;;;;10.01;55.05;100394.16;4452594;32;32891;-78
2023/10/16 04:08:01;;;;;;;0.00;0.00;;;;;;;10.16;54.45;100390.16;4474466;32;34034;-78
2023/10/16 04:10:28;;;;;;;0.22;0.13;;;;;;;10.21;54.39;100391.78;4476799;32;32682;-79
2023/10/16 04:12:57;;;;;;;0.08;0.08;;;;;;;10.07;54.75;100391.34;4448397;32;33183;-78
2023/10/16 04:20:56;;;;;;;0.10;0.10;;;;;;;9.95;55.24;100394.38;4478012;32;33547;-80
2023/10/16 04:23:29;;;;;;;0.00;0.00;;;;;;;9.82;55.31;100380.69;4461362;32;33227;-80
2023/10/16 04:31:43;;;;;;;0.28;0.28;;;;;;;9.45;56.60;100387.13;4465232;32;34035;-80
2023/10/16 04:50:30;;;;;;;0.10;0.10;;;;;;;9.06;58.09;100393.50;4480014;32;34956;-79
2023/10/16 04:53:25;;;;;;;0.00;0.00;;;;;;;8.70;59.27;100399.75;4463887;32;33303;-80
2023/10/16 04:55:54;;;;;;;0.10;0.10;;;;;;;8.78;58.93;100394.25;4473737;31;33300;-81
2023/10/16 05:14:28;;;;;;;0.20;0.20;;;;;;;8.54;59.84;100392.28;4471381;32;33370;-79
2023/10/16 05:22:03;;;;;;;0.03;0.03;;;;;;;8.60;59.18;100405.31;4474848;32;31982;-79
2023/10/16 06:14:37;;;;;;;;;;;;;;;9.34;57.89;100448.94;4469044;32;34866;-80
2023/10/16 06:17:13;;;;;;;;;;;;;;;9.59;57.31;100438.53;4475358;32;32840;-80
2023/10/16 06:19:44;;;;;;;;;;;;;;;9.19;58.50;100451.09;4475113;32;34572;-80
2023/10/16 06:22:11;;;;;;;;;;;;;;;9.54;57.87;100454.50;4461136;32;34004;-80
2023/10/16 06:24:44;;;;;;;;;;;;;;;9.56;57.66;100460.59;4451133;32;32662;-80
2023/10/16 06:27:19;;;;;;;;;;;;;;;9.37;58.34;100455.00;4473731;32;34716;-79
2023/10/16 06:29:50;;;;;;;;;;;;;;;9.21;58.43;100464.25;4453327;32;33525;-80
2023/10/16 06:32:19;;;;;;;;;;;;;;;9.44;58.09;100463.56;4448481;32;31733;-80
2023/10/16 06:34:57;;;;;;;;;;;;;;;9.35;58.59;100467.37;4474753;32;33491;-79
2023/10/16 06:37:28;;;;;;;;;;;;;;;8.96;59.64;100472.78;4463959;32;33353;-80
2023/10/16 06:39:58;;;;;;;;;;;;;;;9.55;57.90;100463.28;4462457;32;33026;-80
2023/10/16 06:42:28;;;;;;;;;;;;;;;9.48;57.98;100471.34;4477178;31;33892;-80
2023/10/16 06:45:06;;;;;;;;;;;;;;;9.86;56.99;100479.91;4460263;32;32783;-80
2023/10/16 06:47:37;;;;;;;2.12;0.30;;;;;;;10.07;56.67;100482.84;4471328;32;34002;-80
2023/10/16 06:52:54;;;;;;;0.00;0.00;;;;;;;10.31;55.85;100507.66;4470429;32;33898;-80
2023/10/16 06:55:22;;;;;;;4.05;0.65;;;;;;;9.81;56.73;100500.28;4459237;32;34572;-80
2023/10/16 06:57:50;;;;;;;0.10;0.03;;;;;;;9.90;56.91;100515.84;4459479;32;33743;-80
2023/10/16 07:00:32;;;;;;;0.43;0.43;;;;;;;10.16;55.98;100511.56;4472569;32;34479;-80
2023/10/16 07:03:09;;;;;;;0.03;0.03;;;;;;;10.14;56.29;100508.97;4472918;32;33401;-80
2023/10/16 07:05:44;;;;;;;0.00;0.00;;;;;;;10.11;56.48;100510.84;4470528;32;33882;-80
2023/10/16 07:08:17;;;;;;;0.13;0.13;;;;;;;10.41;55.66;100517.84;4463060;32;32685;-80
2023/10/16 07:11:03;;;;;;;0.00;0.00;;;;;;;10.49;55.51;100518.50;4459757;32;32735;-80
2023/10/16 07:13:38;;;;;;;0.00;0.00;;;;;;;10.75;54.55;100520.25;4468477;32;34083;-80
2023/10/16 07:16:07;;;;;;;0.05;0.05;;;;;;;11.26;52.52;100515.91;4473955;32;32646;-80
2023/10/16 07:18:35;;;;;;;0.30;0.30;;;;;;;10.92;53.78;100517.06;4468794;32;32838;-80
2023/10/16 07:23:36;;;;;;;0.03;0.03;;;;;;;10.83;54.68;100520.03;4458033;32;33550;-80
2023/10/16 07:26:06;;;;;;;2.35;0.28;;;;;;;11.11;54.20;100517.31;4473208;32;33633;-80
2023/10/16 07:28:34;;;;;;;0.85;0.47;;;;;;;11.01;54.06;100527.34;4473923;32;34563;-81
2023/10/16 07:31:10;;;;;;;1.83;0.57;;;;;;;10.86;53.82;100527.81;4471401;32;34125;-80
2023/10/16 07:33:41;;;;;;;0.60;0.60;;;;;;;11.29;53.48;100529.00;4460954;32;31469;-81
2023/10/16 07:36:12;;;;;;;0.85;0.22;;;;;;;11.30;53.01;100530.75;4470005;32;33503;-80
2023/10/16 07:38:40;;;;;;;1.85;0.08;;;;;;;11.12;53.03;100534.03;4468126;32;33433;-80
2023/10/16 07:41:09;;;;;;;0.20;0.20;;;;;;;11.47;52.51;100530.16;4454956;32;33270;-80
2023/10/16 07:43:45;;;;;;;0.10;0.10;;;;;;;11.54;52.01;100540.47;4458139;32;32717;-80
2023/10/16 07:48:50;;;;;;;0.17;0.10;;;;;;;11.39;52.22;100548.91;4453774;32;32303;-80
2023/10/16 07:51:20;;;;;;;0.55;0.40;;;;;;;11.39;52.07;100548.91;4460732;32;33612;-80
2023/10/16 07:53:49;;;;;;;0.00;0.00;;;;;;;12.28;49.58;100535.09;4462520;32;33442;-80
2023/10/16 07:59:18;;;;;;;0.25;0.25;;;;;;;12.22;50.14;100540.62;4472339;32;34739;-80
2023/10/16 08:01:52;;;;;;;0.05;0.05;;;;;;;12.70;48.31;100540.47;4465139;32;32482;-81
2023/10/16 08:06:55;;;;;;;0.00;0.00;;;;;;;12.39;48.89;100537.31;4472413;32;31457;-81
2023/10/16 08:12:12;;;;;;;5.57;1.50;;;;;;;12.81;47.31;100521.47;4472617;32;33725;-80
2023/10/16 08:14:43;;;;;;;0.00;0.00;;;;;;;12.81;48.15;100527.63;4461280;32;32639;-80
2023/10/16 08:17:17;;;;;;;0.00;0.00;;;;;;;12.98;47.99;100526.94;4453029;32;34105;-80
2023/10/16 08:19:46;;;;;;;0.00;0.00;;;;;;;13.06;46.64;100519.53;4471910;32;34466;-80
2023/10/16 08:22:14;;;;;;;0.00;0.00;;;;;;;12.29;47.85;100536.81;4461031;32;32496;-80
2023/10/16 08:24:43;;;;;;;0.13;0.13;;;;;;;13.02;46.44;100525.88;4464125;32;34124;-80
2023/10/16 08:30:17;;;;;;;0.98;0.75;;;;;;;12.98;47.15;100531.38;4474561;32;33889;-81
2023/10/16 08:35:19;;;;;;;0.00;0.00;;;;;;;12.80;47.33;100538.28;4476546;32;33092;-81
2023/10/16 08:37:57;;;;;;;0.10;0.10;;;;;;;12.60;48.07;100536.47;4461107;32;33657;-80
2023/10/16 08:40:35;;;;;;;0.10;0.10;;;;;;;12.97;46.89;100533.16;4462385;32;33065;-81
2023/10/16 08:43:04;;;;;;;0.10;0.10;;;;;;;13.22;46.47;100532.16;4469401;32;33767;-80
2023/10/16 08:45:39;;;;;;;0.00;0.00;;;;;;;13.25;46.15;100537.34;4476368;32;32370;-80
2023/10/16 08:48:08;;;;;;;0.62;0.52;;;;;;;13.05;45.27;100546.09;4475208;32;33484;-80
2023/10/16 08:50:43;;;;;;;0.10;0.05;;;;;;;13.42;44.63;100536.59;4463444;32;34222;-80
2023/10/16 08:53:30;;;;;;;2.92;1.05;;;;;;;14.04;42.59;100531.09;4463709;32;32835;-80
2023/10/16 08:56:03;;;;;;;0.05;0.05;;;;;;;13.93;42.63;100522.78;4451947;32;33755;-80
2023/10/16 08:58:35;;;;;;;0.00;0.00;;;;;;;13.92;41.72;100536.13;4461251;32;32517;-80
2023/10/16 09:01:07;;;;;;;0.00;0.00;;;;;;;13.81;41.56;100524.22;4477048;32;34003;-81
2023/10/16 09:03:44;;;;;;;0.00;0.00;;;;;;;13.75;41.51;100524.47;4449627;32;33905;-80
2023/10/16 09:06:21;;;;;;;0.00;0.00;;;;;;;13.51;42.56;100526.44;4472686;32;33385;-80
2023/10/16 09:08:54;;;;;;;0.00;0.00;;;;;;;13.30;43.71;100532.69;4461376;32;34638;-80
2023/10/16 09:11:24;;;;;;;0.10;0.10;;;;;;;13.49;42.53;100528.31;4472916;32;33928;-80
2023/10/16 09:13:52;;;;;;;0.00;0.00;;;;;;;13.67;42.89;100531.06;4464856;32;32726;-80
2023/10/16 09:16:23;;;;;;;0.00;0.00;;;;;;;13.74;43.22;100532.53;4475803;32;33845;-80
2023/10/16 09:18:57;;;;;;;0.30;0.30;;;;;;;13.63;43.55;100527.69;4464559;32;34606;-80
2023/10/16 09:21:29;;;;;;;0.00;0.00;;;;;;;13.91;42.79;100529.06;4461410;32;34724;-81
2023/10/16 09:24:01;;;;;;;0.00;0.00;;;;;;;14.13;41.59;100528.97;4463604;32;33813;-81
2023/10/16 09:26:37;;;;;;;0.00;0.00;;;;;;;14.56;39.71;100531.31;4464410;32;33443;-81
2023/10/16 09:29:14;;;;;;;0.00;0.00;;;;;;;15.04;38.57;100535.16;4471847;32;33430;-80
2023/10/16 09:31:46;;;;;;;0.08;0.08;;;;;;;14.73;38.80;100541.16;4465521;32;32299;-81
2023/10/16 09:34:19;;;;;;;0.10;0.10;;;;;;;14.68;38.83;100542.31;4462544;32;34589;-80
2023/10/16 09:39:40;;;;;;;0.00;0.00;;;;;;;15.03;36.84;100525.44;4477143;32;33242;-80
2023/10/16 09:42:14;;;;;;;0.00;0.00;;;;;;;15.09;36.98;100501.19;4448199;32;32521;-80
2023/10/16 09:44:56;;;;;;;0.00;0.00;;;;;;;14.48;38.82;100511.37;4475284;32;34293;-80
2023/10/16 09:47:25;;;;;;;0.00;0.00;;;;;;;14.54;39.07;100506.62;4454767;31;33479;-80
2023/10/16 09:49:55;;;;;;;0.00;0.00;;;;;;;14.76;38.23;100516.19;4474014;32;34045;-81
2023/10/16 09:52:22;;;;;;;0.10;0.10;;;;;;;14.83;37.37;100507.00;4461806;32;33946;-81
2023/10/16 09:54:51;;;;;;;0.00;0.00;;;;;;;14.92;37.39;100492.38;4461562;32;34497;-80
2023/10/16 09:57:22;;;;;;;0.00;0.00;;;;;;;15.02;37.90;100494.47;4472039;32;33870;-79
2023/10/16 10:00:00;;;;;;;0.00;0.00;;;;;;;14.40;38.65;100495.78;4459554;31;32468;-83
2023/10/16 10:02:39;;;;;;;0.00;0.00;;;;;;;14.91;38.11;100491.53;4451802;32;33058;-82
2023/10/16 10:05:12;;;;;;;0.10;0.10;;;;;;;15.29;37.34;100491.34;4462675;32;33836;-83
2023/10/16 10:07:47;;;;;;;0.00;0.00;;;;;;;14.68;39.61;100499.78;4445830;32;33504;-82
2023/10/16 10:13:08;;;;;;;0.30;0.30;;;;;;;14.90;38.80;100488.91;4459573;32;32885;-82
2023/10/16 10:15:39;;;;;;;2.20;0.85;;;;;;;15.17;37.59;100492.84;4456729;32;34405;-81
2023/10/16 10:21:11;;;;;;;4.82;0.82;;;;;;;15.62;36.92;100478.06;4471627;32;36024;-81
2023/10/16 10:23:43;;;;;;;0.30;0.30;;;;;;;16.03;36.94;100483.81;4449339;32;32975;-82
2023/10/16 10:26:17;;;;;;;0.00;0.00;;;;;;;16.03;35.82;100483.81;4473817;32;33946;-81
2023/10/16 10:28:45;;;;;;;0.00;0.00;;;;;;;16.26;35.70;100476.34;4472986;32;33294;-81
2023/10/16 10:31:13;;;;;;;1.35;0.62;;;;;;;15.98;35.62;100467.22;4472529;32;37066;-81
2023/10/16 10:33:51;;;;;;;0.05;0.05;;;;;;;15.98;36.89;100467.22;4460518;32;33165;-81
2023/10/16 10:36:43;;;;;;;0.32;0.32;;;;;;;16.03;35.76;100467.81;4461659;32;32706;-81
2023/10/16 10:39:21;;;;;;;0.10;0.05;;;;;;;16.38;36.14;100463.19;4461327;32;31017;-82
2023/10/16 10:42:03;;;;;;;0.10;0.10;;;;;;;16.93;35.25;100444.94;4472197;32;35032;-83
2023/10/16 10:44:44;;;;;;;0.00;0.00;;;;;;;16.83;35.02;100436.63;4471683;32;33340;-82
2023/10/16 10:47:24;;;;;;;0.00;0.00;;;;;;;16.52;35.12;100435.75;4473386;32;34503;-82
2023/10/16 10:49:58;;;;;;;0.30;0.30;;;;;;;16.50;36.11;100434.94;4458594;32;32060;-82
2023/10/16 10:52:32;;;;;;;0.00;0.00;;;;;;;17.09;34.07;100421.69;4459117;32;33578;-82
2023/10/16 10:55:14;;;;;;;0.60;0.60;;;;;;;16.78;35.07;100422.69;4459087;32;33152;-82
2023/10/16 10:57:47;;;;;;;0.30;0.20;;;;;;;16.60;35.47;100425.47;4471696;32;33991;-82
2023/10/16 11:00:24;;;;;;;0.00;0.00;;;;;;;16.72;35.32;100413.25;4463539;32;31432;-82
2023/10/16 11:02:52;;;;;;;0.25;0.00;;;;;;;16.56;34.59;100407.91;4463467;32;33009;-82
2023/10/16 11:05:23;;;;;;;0.03;0.03;;;;;;;16.62;33.89;100414.72;4459184;32;33241;-82
2023/10/16 11:10:42;;;;;;;0.47;0.28;;;;;;;17.34;32.65;100410.41;4470969;32;33189;-82
2023/10/16 11:13:14;;;;;;;0.60;0.17;;;;;;;16.96;33.49;100400.25;4460029;32;33958;-83
2023/10/16 11:15:48;;;;;;;1.12;0.82;;;;;;;17.44;34.42;100398.19;4457173;32;35518;-82
2023/10/16 11:18:18;;;;;;;0.00;0.00;;;;;;;17.36;33.92;100404.00;4447265;32;33357;-82
2023/10/16 11:20:53;;;;;;;0.00;0.00;;;;;;;17.48;33.46;100397.03;4444438;32;32035;-82
2023/10/16 11:23:31;;;;;;;0.00;0.00;;;;;;;17.71;32.50;100405.38;4448755;32;33232;-82
2023/10/16 11:25:59;;;;;;;0.37;0.37;;;;;;;17.36;33.41;100401.31;4477430;32;33216;-82
2023/10/16 11:28:31;;;;;;;0.00;0.00;;;;;;;17.46;32.93;100395.41;4472725;32;34007;-83
2023/10/16 11:31:00;;;;;;;0.00;0.00;;;;;;;17.61;32.59;100398.00;4449229;32;33607;-82
2023/10/16 11:33:45;;;;;;;0.13;0.13;;;;;;;17.56;32.96;100393.88;4461366;32;33056;-82
2023/10/16 11:36:16;;;;;;;0.00;0.00;;;;;;;17.08;33.79;100403.97;4463818;32;33515;-82
2023/10/16 11:38:44;;;;;;;0.77;0.77;;;;;;;17.87;31.60;100396.34;4449171;32;33941;-81
2023/10/16 11:41:12;;;;;;;0.30;0.05;;;;;;;17.51;32.72;100402.16;4473093;32;33525;-82
2023/10/16 11:43:53;;;;;;;0.03;0.03;;;;;;;17.12;32.80;100410.84;4446766;32;32651;-82
2023/10/16 11:46:28;;;;;;;1.02;0.55;;;;;;;17.60;31.75;100395.41;4457353;31;146986;-82
2023/10/16 11:52:09;;;;;;;3.92;0.32;;;;;;;17.32;32.36;100394.44;4462803;32;33433;-81
2023/10/16 11:54:40;;;;;;;0.00;0.00;;;;;;;17.27;32.15;100398.38;4449227;32;32940;-82
2023/10/16 11:57:13;;;;;;;0.40;0.40;;;;;;;17.44;31.88;100390.19;4473105;32;34501;-82
2023/10/16 11:59:41;;;;;;;0.00;0.00;;;;;;;17.28;33.17;100378.72;4462048;32;33245;-81
2023/10/16 12:02:12;;;;;;;0.40;0.30;;;;;;;17.40;32.12;100396.66;4462539;32;32288;-82
2023/10/16 12:04:41;;;;;;;0.08;0.08;;;;;;;17.73;30.93;100398.16;4464269;32;33582;-82
2023/10/16 12:07:09;;;;;;;0.32;0.10;;;;;;;17.61;31.13;100391.75;4472819;32;32686;-82
2023/10/16 12:09:38;;;;;;;5.37;0.47;;;;;;;17.86;31.79;100393.78;4450225;32;32728;-82
2023/10/16 12:12:07;;;;;;;0.00;0.00;;;;;;;17.72;30.62;100383.94;4462937;32;32801;-82
2023/10/16 12:14:38;;;;;;;0.00;0.00;;;;;;;18.10;30.89;100384.16;4464575;32;33218;-82
2023/10/16 12:17:11;;;;;;;0.00;0.00;;;;;;;17.59;31.48;100389.19;4475122;32;33641;-82
2023/10/16 12:19:40;;;;;;;0.00;0.00;;;;;;;17.65;31.18;100391.47;4460329;32;33114;-82
2023/10/16 12:22:08;;;;;;;1.75;0.35;;;;;;;18.06;30.03;100382.66;4473235;32;33066;-82
2023/10/16 12:24:39;;;;;;;0.43;0.43;;;;;;;18.21;30.01;100369.22;4449728;32;33395;-82
2023/10/16 12:27:06;;;;;;;0.00;0.00;;;;;;;18.37;29.49;100377.94;4463600;32;33551;-82
2023/10/16 12:29:35;;;;;;;1.27;0.43;;;;;;;18.20;29.98;100378.22;4461407;32;34205;-83
2023/10/16 12:32:03;;;;;;;0.00;0.00;;;;;;;17.92;30.41;100380.00;4458750;31;32775;-82
2023/10/16 12:34:32;;;;;;;0.10;0.10;;;;;;;17.72;30.40;100372.41;4448007;32;34267;-82
2023/10/16 12:37:03;;;;;;;0.00;0.00;;;;;;;17.22;31.88;100384.44;4460835;32;34457;-82
2023/10/16 12:39:45;;;;;;;0.20;0.03;;;;;;;17.40;32.11;100380.63;4473505;32;32793;-82
2023/10/16 12:42:14;;;;;;;0.20;0.20;;;;;;;17.36;32.31;100379.13;4474919;32;31464;-82
2023/10/16 12:44:42;;;;;;;0.20;0.13;;;;;;;17.63;32.07;100382.72;4452233;32;32847;-83
2023/10/16 12:47:11;;;;;;;0.93;0.13;;;;;;;17.76;31.98;100368.63;4461281;32;33816;-82
2023/10/16 12:49:53;;;;;;;0.00;0.00;;;;;;;17.82;31.30;100362.87;4469744;32;32793;-82
2023/10/16 12:52:21;;;;;;;0.00;0.00;;;;;;;18.10;30.78;100368.12;4462919;32;31383;-82
2023/10/16 12:54:52;;;;;;;0.00;0.00;;;;;;;17.90;30.72;100380.13;4456971;32;33096;-82
2023/10/16 12:57:21;;;;;;;0.00;0.00;;;;;;;17.53;31.20;100373.59;4457465;32;33259;-82
2023/10/16 12:59:49;;;;;;;0.05;0.05;;;;;;;17.58;31.62;100382.16;4461477;32;33034;-82
2023/10/16 13:02:25;;;;;;;0.00;0.00;;;;;;;18.42;29.97;100373.16;4459518;32;33972;-81
2023/10/16 13:04:55;;;;;;;0.30;0.28;;;;;;;18.32;29.85;100372.03;4473056;32;34682;-82
2023/10/16 13:07:26;;;;;;;0.15;0.00;;;;;;;18.35;29.08;100366.50;4459105;32;33894;-82
2023/10/16 13:10:15;;;;;;;0.17;0.17;;;;;;;18.07;30.22;100365.66;4463123;32;33776;-82
2023/10/16 13:12:43;;;;;;;1.55;0.15;;;;;;;18.20;29.09;100356.84;4463342;32;32430;-81
2023/10/16 13:15:16;;;;;;;0.05;0.05;;;;;;;17.99;30.56;100372.44;4460703;32;33443;-81
2023/10/16 13:17:44;;;;;;;0.00;0.00;;;;;;;18.02;30.06;100359.75;4459931;32;32017;-82
2023/10/16 13:20:17;;;;;;;0.00;0.00;;;;;;;18.33;30.37;100358.59;4457455;32;34783;-81
2023/10/16 13:22:49;;;;;;;0.05;0.05;;;;;;;18.14;30.56;100358.97;4470121;32;33507;-82
2023/10/16 13:25:18;;;;;;;;;;;;;;;18.19;31.18;100353.31;4453691;32;32423;-82
2023/10/16 13:27:46;;;;;;;0.00;0.00;;;;;;;18.56;29.98;100359.72;4459902;32;34370;-82
2023/10/16 13:30:18;;;;;;;0.20;0.20;;;;;;;18.71;29.38;100348.97;4450530;32;33407;-82
2023/10/16 13:32:49;;;;;;;0.10;0.05;;;;;;;18.27;30.18;100356.31;4458518;32;33066;-82
2023/10/16 13:35:17;;;;;;;0.00;0.00;;;;;;;18.51;29.05;100353.78;4458262;32;32976;-82
2023/10/16 13:37:49;;;;;;;0.17;0.17;;;;;;;18.05;29.86;100354.22;4458585;32;33449;-83
2023/10/16 13:40:21;;;;;;;0.03;0.00;;;;;;;17.78;31.19;100356.00;4459023;32;33218;-83
2023/10/16 13:42:49;;;;;;;0.30;0.08;;;;;;;17.77;30.52;100359.66;4470231;32;32977;-82
2023/10/16 13:45:18;;;;;;;0.00;0.00;;;;;;;17.71;30.03;100351.97;4457600;32;31752;-82
2023/10/16 13:47:46;;;;;;;0.28;0.28;;;;;;;17.59;30.33;100357.16;4458850;32;32776;-82
2023/10/16 13:50:24;;;;;;;0.00;0.00;;;;;;;17.89;30.52;100358.84;4472236;32;33057;-83
2023/10/16 13:52:58;;;;;;;0.30;0.10;;;;;;;17.50;31.08;100356.88;4452710;32;33604;-83
2023/10/16 13:55:30;;;;;;;0.00;0.00;;;;;;;17.31;31.76;100362.53;4462332;32;33894;-83
2023/10/16 13:57:58;;;;;;;1.30;0.88;;;;;;;17.44;31.24;100351.94;4453053;32;33516;-83
2023/10/16 14:00:35;;;;;;;0.17;0.17;;;;;;;17.27;31.88;100348.50;4474926;32;32695;-83
2023/10/16 14:06:01;;;;;;;0.10;0.10;;;;;;;17.23;31.76;100346.13;4459847;32;34112;-83
2023/10/16 14:08:36;;;;;;;0.00;0.00;;;;;;;16.90;32.18;100347.25;4462010;32;33528;-83
2023/10/16 14:11:11;;;;;;;0.00;0.00;;;;;;;16.72;32.49;100338.59;4459113;32;34400;-83
2023/10/16 14:13:40;;;;;;;0.00;0.00;;;;;;;16.25;31.28;100338.72;4473225;32;33288;-83